Time;durP1;ratioP1;P1;durP2;ratioP2;P2;SDS_P1;SDS_P2;PMS_P1;PMS_P2;Temp;Humidity;BMP_temperature;BMP_pressure;BME280_temperature;BME280_humidity;BME280_pressure;Samples;Min_cycle;Max_cycle;Signal;HPM_P1;HPM_P2
2023/09/13 00:00:51;;;;;;;;;;;;;;;21.98;44.43;99781.50;5093660;28;20003;-76
2023/09/13 00:03:16;;;;;;;;;;;;;;;21.98;45.07;99783.38;5092867;28;20007;-77
2023/09/13 00:05:42;;;;;;;;;;;;;;;21.95;45.56;99789.25;5093184;28;19934;-76
2023/09/13 00:08:08;;;;;;;;;;;;;;;21.91;44.18;99796.19;5093213;28;20003;-76
2023/09/13 00:10:33;;;;;;;;;;;;;;;21.89;44.78;99780.28;5093186;28;20028;-77
2023/09/13 00:12:58;;;;;;;;;;;;;;;21.85;45.76;99789.91;5093322;28;19912;-77
2023/09/13 00:15:23;;;;;;;;;;;;;;;21.87;45.31;99785.09;5092919;28;19915;-78
2023/09/13 00:17:49;;;;;;;;;;;;;;;21.86;45.74;99784.28;5074814;28;19912;-77
2023/09/13 00:20:14;;;;;;;;;;;;;;;21.84;45.13;99793.66;5074913;28;20297;-76
2023/09/13 00:22:39;;;;;;;;;;;;;;;21.82;44.95;99785.84;5093300;28;19912;-76
2023/09/13 00:25:04;;;;;;;;;;;;;;;21.83;45.86;99786.66;5092878;28;19916;-77
2023/09/13 00:27:30;;;;;;;;;;;;;;;21.82;45.59;99785.84;5092671;28;19980;-76
2023/09/13 00:29:56;;;;;;;;;;;;;;;21.79;46.14;99789.03;5092538;28;19928;-76
2023/09/13 00:32:21;;;;;;;;;;;;;;;21.74;45.75;99788.13;5092708;28;19913;-76
2023/09/13 00:34:46;;;;;;;;;;;;;;;21.70;46.26;99793.19;5092596;28;19919;-77
2023/09/13 00:37:12;;;;;;;;;;;;;;;21.70;45.77;99793.19;5092606;28;19943;-77
2023/09/13 00:39:37;;;;;;;;;;;;;;;21.72;44.65;99792.94;5092895;28;20396;-77
2023/09/13 00:42:02;;;;;;;;;;;;;;;21.70;45.60;99800.44;5092635;28;19937;-77
2023/09/13 00:44:27;;;;;;;;;;;;;;;21.71;45.45;99800.19;5092614;28;19959;-77
2023/09/13 00:46:53;;;;;;;;;;;;;;;21.59;45.87;99796.75;5092536;28;20281;-76
2023/09/13 00:49:18;;;;;;;;;;;;;;;21.54;44.85;99802.84;5092615;28;19916;-77
2023/09/13 00:51:44;;;;;;;;;;;;;;;21.44;45.13;99802.66;5092534;28;20373;-76
2023/09/13 00:54:09;;;;;;;;;;;;;;;21.24;45.79;99805.81;5092151;28;19967;-76
2023/09/13 00:56:35;;;;;;;;;;;;;;;21.09;46.15;99810.88;5092074;28;19948;-77
2023/09/13 00:59:02;;;;;;;;;;;;;;;20.97;45.56;99815.47;5092341;28;20015;-76
2023/09/13 01:01:27;;;;;;;;;;;;;;;20.85;46.44;99806.66;5092162;28;19920;-77
2023/09/13 01:03:53;;;;;;;;;;;;;;;20.78;45.27;99805.94;5092294;28;19919;-76
2023/09/13 01:06:18;;;;;;;;;;;;;;;20.76;45.79;99808.84;5092251;28;19913;-76
2023/09/13 01:08:45;;;;;;;;;;;;;;;20.68;45.60;99803.88;5092154;28;19916;-76
2023/09/13 01:11:11;;;;;;;;;;;;;;;20.61;46.60;99805.88;5092196;28;20289;-77
2023/09/13 01:13:36;;;;;;;;;;;;;;;20.52;46.56;99797.38;5095990;28;19973;-76
2023/09/13 01:16:20;;;;;;;;;;;;;;;20.51;45.97;99811.03;5094736;28;19912;-76
2023/09/13 01:18:58;;;;;;;;;;;;;;;20.50;46.69;99804.03;5092183;28;19912;-77
2023/09/13 01:21:33;;;;;;;;;;;;;;;20.48;45.89;99812.31;5092494;28;19998;-77
2023/09/13 01:23:58;;;;;;;;;;;;;;;20.42;46.38;99812.44;5091903;28;20006;-76
2023/09/13 01:26:35;;;;;;;;;;;;;;;20.35;46.61;99812.53;5073973;28;20378;-76
2023/09/13 01:29:02;;;;;;;;;;;;;;;20.34;45.70;99805.53;5091887;28;19916;-76
2023/09/13 01:31:28;;;;;;;;;;;;;;;20.29;46.82;99811.59;5092172;28;19969;-76
2023/09/13 01:33:54;;;;;;;;;;;;;;;20.23;46.67;99809.03;5092995;28;19912;-77
2023/09/13 01:36:19;;;;;;;;;;;;;;;20.16;47.29;99803.00;5077797;28;19912;-76
2023/09/13 01:38:44;;;;;;;;;;;;;;;20.03;48.05;99809.38;5074322;28;19913;-76
2023/09/13 01:41:24;;;;;;;;;;;;;;;19.96;47.08;99806.81;5092016;28;20445;-77
2023/09/13 01:44:08;;;;;;;;;;;;;;;19.93;46.87;99806.47;5092178;28;19912;-77
2023/09/13 01:46:41;;;;;;;;;;;;;;;19.82;47.95;99818.00;5091678;28;19916;-76
2023/09/13 01:49:08;;;;;;;;;;;;;;;19.81;46.98;99816.34;5091664;28;19916;-77
2023/09/13 01:51:33;;;;;;;;;;;;;;;19.82;46.81;99815.31;5091754;28;19961;-76
2023/09/13 01:53:59;;;;;;;;;;;;;;;19.78;47.20;99814.94;5091768;28;19912;-75
2023/09/13 01:56:24;;;;;;;;;;;;;;;19.62;47.13;99810.28;5073578;28;19912;-75
2023/09/13 01:58:49;;;;;;;;;;;;;;;19.59;47.09;99814.22;5091702;28;19959;-77
2023/09/13 02:01:15;;;;;;;;;;;;;;;19.49;47.81;99813.94;5073527;28;19920;-77
2023/09/13 02:03:41;;;;;;;;;;;;;;;19.47;47.79;99812.53;5091528;28;19965;-77
2023/09/13 02:06:06;;;;;;;;;;;;;;;19.49;47.19;99805.91;5091387;28;19919;-77
2023/09/13 02:08:32;;;;;;;;;;;;;;;19.51;48.04;99817.22;5091251;28;19913;-77
2023/09/13 02:10:57;;;;;;;;;;;;;;;19.56;47.23;99814.69;5091343;28;19920;-78
2023/09/13 02:13:22;;;;;;;;;;;;;;;19.58;47.34;99815.28;5091355;28;19960;-77
2023/09/13 02:15:48;;;;;;;;;;;;;;;19.64;47.64;99814.34;5091710;28;19912;-77
2023/09/13 02:18:13;;;;;;;;;;;;;;;19.74;46.68;99815.66;5091863;28;19913;-76
2023/09/13 02:20:38;;;;;;;;;;;;;;;19.70;47.07;99815.28;5091457;28;19912;-77
2023/09/13 02:23:03;;;;;;;;;;;;;;;19.69;47.24;99819.03;5091570;28;19916;-75
2023/09/13 02:25:29;;;;;;;;;;;;;;;19.76;47.94;99821.59;5092988;28;19916;-77
2023/09/13 02:27:54;;;;;;;;;;;;;;;19.81;47.16;99816.34;5095297;28;19912;-77
2023/09/13 02:30:19;;;;;;;;;;;;;;;19.81;47.43;99808.31;5095022;28;19966;-77
2023/09/13 02:32:44;;;;;;;;;;;;;;;19.75;47.49;99828.00;5095069;28;19912;-76
2023/09/13 02:35:11;;;;;;;;;;;;;;;19.67;47.73;99821.09;5094898;28;19956;-76
2023/09/13 02:37:36;;;;;;;;;;;;;;;19.57;47.84;99823.53;5095341;28;19938;-77
2023/09/13 02:40:05;;;;;;;;;;;;;;;19.51;47.91;99832.47;5095149;28;19912;-77
2023/09/13 02:42:30;;;;;;;;;;;;;;;19.46;48.55;99819.75;5094965;28;19999;-77
2023/09/13 02:44:56;;;;;;;;;;;;;;;19.43;46.91;99820.22;5094697;28;20030;-77
2023/09/13 02:47:21;;;;;;;;;;;;;;;19.30;48.29;99831.91;5094580;28;20308;-77
2023/09/13 02:49:46;;;;;;;;;;;;;;;19.20;48.29;99828.97;5076505;28;19923;-77
2023/09/13 02:52:11;;;;;;;;;;;;;;;19.13;49.16;99824.75;5094793;28;19912;-77
2023/09/13 02:54:37;;;;;;;;;;;;;;;19.04;48.64;99821.56;5094650;28;19912;-77
2023/09/13 02:57:02;;;;;;;;;;;;;;;18.99;48.24;99819.56;5076431;28;20411;-75
2023/09/13 02:59:27;;;;;;;;;;;;;;;18.91;49.59;99816.38;5076432;28;19916;-77
2023/09/13 03:01:53;;;;;;;;;;;;;;;18.90;48.06;99818.25;5094303;28;19989;-77
2023/09/13 03:04:19;;;;;;;;;;;;;;;18.96;48.67;99816.53;5094590;28;19916;-77
2023/09/13 03:06:44;;;;;;;;;;;;;;;18.98;48.64;99820.59;5076368;28;19969;-77
2023/09/13 03:09:09;;;;;;;;;;;;;;;18.97;48.68;99821.66;5094836;28;19916;-77
2023/09/13 03:11:35;;;;;;;;;;;;;;;18.97;48.85;99820.84;5094555;28;19912;-77
2023/09/13 03:14:01;;;;;;;;;;;;;;;18.93;48.91;99825.81;5094761;28;19919;-78
2023/09/13 03:16:26;;;;;;;;;;;;;;;18.92;48.47;99832.22;5094616;28;19912;-77
2023/09/13 03:18:52;;;;;;;;;;;;;;;18.87;48.61;99829.41;5094454;28;19916;-76
2023/09/13 03:21:18;;;;;;;;;;;;;;;18.76;48.45;99829.34;5094197;28;19955;-75
2023/09/13 03:23:45;;;;;;;;;;;;;;;18.71;47.94;99832.69;5094236;28;20309;-78
2023/09/13 03:26:14;;;;;;;;;;;;;;;18.63;48.39;99835.66;5094116;28;19919;-77
2023/09/13 03:28:39;;;;;;;;;;;;;;;18.53;49.60;99846.00;5094018;28;19961;-77
2023/09/13 03:31:08;;;;;;;;;;;;;;;18.46;48.39;99839.91;5075749;28;20002;-78
2023/09/13 03:33:33;;;;;;;;;;;;;;;18.33;49.43;99844.34;5093866;28;19912;-77
2023/09/13 03:35:58;;;;;;;;;;;;;;;18.24;49.14;99843.00;5075543;28;19912;-78
2023/09/13 03:38:24;;;;;;;;;;;;;;;18.17;48.82;99847.59;5093105;28;19966;-77
2023/09/13 03:40:49;;;;;;;;;;;;;;;18.15;49.41;99846.19;5093887;28;19912;-77
2023/09/13 03:43:14;;;;;;;;;;;;;;;18.07;50.02;99845.41;5093812;28;19912;-77
2023/09/13 03:45:39;;;;;;;;;;;;;;;18.04;50.30;99845.84;5093654;28;19912;-77
2023/09/13 03:48:05;;;;;;;;;;;;;;;18.01;50.02;99851.63;5093730;28;19938;-77
2023/09/13 03:50:32;;;;;;;;;;;;;;;18.10;48.48;99847.66;5093767;28;19973;-77
2023/09/13 03:52:57;;;;;;;;;;;;;;;18.20;49.32;99849.81;5093599;28;20402;-77
2023/09/13 03:55:22;;;;;;;;;;;;;;;18.29;48.36;99843.16;5074975;28;19908;-76
2023/09/13 03:57:49;;;;;;;;;;;;;;;18.31;49.08;99848.28;5093175;28;19933;-76
2023/09/13 04:00:15;;;;;;;;;;;;;;;18.41;49.19;99854.75;5093446;28;19964;-76
2023/09/13 04:02:40;;;;;;;;;;;;;;;18.43;47.79;99851.84;5093213;28;19984;-76
2023/09/13 04:05:06;;;;;;;;;;;;;;;18.43;48.93;99855.34;5096221;28;20002;-76
2023/09/13 04:07:31;;;;;;;;;;;;;;;18.43;48.00;99857.22;5078108;28;19919;-77
2023/09/13 04:09:56;;;;;;;;;;;;;;;18.40;48.57;99852.31;5093172;28;19923;-77
2023/09/13 04:12:22;;;;;;;;;;;;;;;18.39;49.90;99848.00;5093450;28;19916;-76
2023/09/13 04:14:47;;;;;;;;;;;;;;;18.38;49.40;99851.69;5075162;28;19918;-77
2023/09/13 04:17:12;;;;;;;;;;;;;;;18.37;48.94;99848.22;5093255;28;19919;-76
2023/09/13 04:19:37;;;;;;;;;;;;;;;18.34;49.60;99848.66;5074880;28;20270;-76
2023/09/13 04:22:03;;;;;;;;;;;;;;;18.31;48.76;99854.44;5093064;28;19916;-76
2023/09/13 04:24:28;;;;;;;;;;;;;;;18.31;48.92;99854.44;5092699;28;20282;-77
2023/09/13 04:26:53;;;;;;;;;;;;;;;18.29;49.77;99853.84;5094713;28;19919;-77
2023/09/13 04:29:19;;;;;;;;;;;;;;;18.26;49.84;99851.63;5076869;28;20019;-77
2023/09/13 04:31:44;;;;;;;;;;;;;;;18.31;49.02;99853.63;5092773;28;19919;-76
2023/09/13 04:34:09;;;;;;;;;;;;;;;18.34;48.91;99854.00;5074375;28;19916;-77
2023/09/13 04:36:35;;;;;;;;;;;;;;;18.34;48.86;99847.84;5074739;28;19916;-77
2023/09/13 04:39:00;;;;;;;;;;;;;;;18.35;49.66;99858.31;5092578;28;19916;-77
2023/09/13 04:41:26;;;;;;;;;;;;;;;18.28;49.47;99857.56;5092708;28;19920;-76
2023/09/13 04:43:51;;;;;;;;;;;;;;;18.29;49.13;99855.69;5092583;28;19912;-76
2023/09/13 04:46:16;;;;;;;;;;;;;;;18.28;48.79;99859.41;5092531;28;19919;-78
2023/09/13 04:48:41;;;;;;;;;;;;;;;18.30;48.96;99860.00;5092417;28;19922;-77
2023/09/13 04:51:08;;;;;;;;;;;;;;;18.29;48.69;99861.03;5092273;28;20003;-77
2023/09/13 04:53:33;;;;;;;;;;;;;;;18.19;49.76;99860.72;5092547;28;19912;-77
2023/09/13 04:56:00;;;;;;;;;;;;;;;18.19;49.53;99858.88;5092071;28;20327;-77
2023/09/13 04:58:26;;;;;;;;;;;;;;;18.23;50.56;99860.06;5092087;28;20385;-77
2023/09/13 05:00:52;;;;;;;;;;;;;;;18.30;49.37;99860.81;5092164;28;19931;-77
2023/09/13 05:03:17;;;;;;;;;;;;;;;18.39;49.99;99862.19;5092146;28;19989;-77
2023/09/13 05:05:42;;;;;;;;;;;;;;;18.43;49.87;99865.22;5092150;28;20369;-76
2023/09/13 05:08:07;;;;;;;;;;;;;;;18.35;49.27;99863.66;5092128;28;19941;-77
2023/09/13 05:10:33;;;;;;;;;;;;;;;18.32;48.71;99858.75;5073761;28;20309;-77
2023/09/13 05:12:58;;;;;;;;;;;;;;;18.32;49.75;99863.28;5091963;28;19912;-78
2023/09/13 05:15:24;;;;;;;;;;;;;;;18.34;50.46;99859.34;5073845;28;19919;-76
2023/09/13 05:17:49;;;;;;;;;;;;;;;18.38;50.29;99862.41;5073864;28;19916;-77
2023/09/13 05:20:14;;;;;;;;;;;;;;;18.45;50.06;99865.00;5073889;28;19920;-77
2023/09/13 05:22:41;;;;;;;;;;;;;;;18.47;50.13;99868.28;5091926;28;20391;-77
2023/09/13 05:25:07;;;;;;;;;;;;;;;18.52;48.76;99866.56;5091856;28;20397;-77
2023/09/13 05:27:32;;;;;;;;;;;;;;;18.58;49.65;99875.56;5091826;28;19947;-76
2023/09/13 05:29:57;;;;;;;;;;;;;;;18.64;48.55;99877.41;5091745;28;19916;-77
2023/09/13 05:32:22;;;;;;;;;;;;;;;18.69;49.81;99870.34;5091850;28;19970;-76
2023/09/13 05:34:48;;;;;;;;;;;;;;;18.79;49.49;99879.72;5091904;28;20300;-77
2023/09/13 05:37:13;;;;;;;;;;;;;;;18.88;49.30;99870.34;5090909;28;19948;-77
2023/09/13 05:39:38;;;;;;;;;;;;;;;18.95;49.29;99881.78;5084149;28;19998;-77
2023/09/13 05:42:04;;;;;;;;;;;;;;;19.05;49.43;99879.41;5090695;28;19916;-76
2023/09/13 05:44:29;;;;;;;;;;;;;;;19.14;49.26;99874.56;5091691;28;20384;-77
2023/09/13 05:46:54;;;;;;;;;;;;;;;19.22;49.39;99871.56;5091679;28;19965;-77
2023/09/13 05:49:19;;;;;;;;;;;;;;;19.29;49.15;99872.28;5073428;28;19916;-76
2023/09/13 05:51:48;;;;;;;;;;;;;;;19.37;49.54;99872.00;5091795;28;20019;-76
2023/09/13 05:54:13;;;;;;;;;;;;;;;19.43;49.56;99859.56;5091637;28;19912;-77
2023/09/13 05:56:39;;;;;;;;;;;;;;;19.50;49.04;99861.09;5073364;28;20057;-76
2023/09/13 05:59:05;;;;;;;;;;;;;;;19.56;49.73;99865.56;5090010;28;19943;-76
2023/09/13 06:01:30;;;;;;;;;;;;;;;19.67;50.34;99869.34;5093620;28;20397;-77
2023/09/13 06:03:55;;;;;;;;;;;;;;;19.74;49.54;99871.91;5095583;28;19956;-77
2023/09/13 06:06:21;;;;;;;;;;;;;;;19.81;48.99;99880.66;5095286;28;19923;-77
2023/09/13 06:08:46;;;;;;;;;;;;;;;19.85;49.73;99877.28;5095380;28;20309;-78
2023/09/13 06:11:11;;;;;;;;;;;;;;;19.88;49.53;99878.69;5095081;28;19916;-77
2023/09/13 06:13:36;;;;;;;;;;;;;;;19.97;48.93;99877.31;5095217;28;20354;-75
2023/09/13 06:16:02;;;;;;;;;;;;;;;20.06;49.01;99881.28;5095636;28;20286;-75
2023/09/13 06:18:28;;;;;;;;;;;;;;;20.17;49.05;99880.50;5077138;28;19918;-77
2023/09/13 06:20:54;;;;;;;;;;;;;;;20.30;49.11;99874.91;5095165;28;19965;-77
2023/09/13 06:23:33;;;;;;;;;;;;;;;20.38;48.47;99876.44;5095101;28;19920;-77
2023/09/13 06:25:58;;;;;;;;;;;;;;;20.44;48.39;99872.03;5095158;28;19912;-77
2023/09/13 06:28:23;;;;;;;;;;;;;;;20.53;49.53;99884.03;5094854;28;20277;-77
2023/09/13 06:30:48;;;;;;;;;;;;;;;20.59;48.80;99886.59;5094761;28;19916;-77
2023/09/13 06:33:14;;;;;;;;;;;;;;;20.69;48.45;99888.69;5094754;28;19977;-77
2023/09/13 06:35:39;;;;;;;;;;;;;;;20.79;48.30;99898.81;5087611;28;19916;-77
2023/09/13 06:38:05;;;;;;;;;;;;;;;20.89;48.83;99894.50;5090010;28;19923;-76
2023/09/13 06:40:30;;;;;;;;;;;;;;;20.99;47.98;99887.72;5094106;28;19935;-77
2023/09/13 06:42:55;;;;;;;;;;;;;;;21.03;48.35;99896.91;5082497;28;19920;-76
2023/09/13 06:45:20;;;;;;;;;;;;;;;21.08;47.53;99892.47;5092571;28;20298;-76
2023/09/13 06:47:46;;;;;;;;;;;;;;;21.13;48.84;99891.75;5081730;28;19916;-77
2023/09/13 06:50:12;;;;;;;;;;;;;;;21.22;46.81;99893.84;5089321;28;20017;-76
2023/09/13 06:52:37;;;;;;;;;;;;;;;21.27;47.62;99889.63;5093960;28;19916;-76
2023/09/13 06:55:02;;;;;;;;;;;;;;;21.34;47.51;99890.31;5093873;28;19916;-76
2023/09/13 06:57:28;;;;;;;;;;;;;;;21.43;47.55;99884.31;5095983;28;19916;-76
2023/09/13 06:59:54;;;;;;;;;;;;;;;21.52;46.42;99888.25;5100883;28;19995;-76
2023/09/13 07:02:20;;;;;;;;;;;;;;;21.63;47.07;99893.81;5084997;28;19927;-77
2023/09/13 07:04:45;;;;;;;;;;;;;;;21.71;47.45;99891.56;5087548;28;21628;-77
2023/09/13 07:07:11;;;;;;;;;;;;;;;21.77;46.70;99893.28;5088833;28;19920;-77
2023/09/13 07:09:37;;;;;;;;;;;;;;;21.87;46.09;99879.19;5088022;28;19926;-77
2023/09/13 07:12:02;;;;;;;;;;;;;;;21.96;47.16;99885.78;5091151;28;20006;-77
2023/09/13 07:14:28;;;;;;;;;;;;;;;22.03;47.33;99889.16;5093440;28;19999;-75
2023/09/13 07:16:53;;;;;;;;;;;;;;;22.09;46.44;99896.25;5090401;28;19923;-78
2023/09/13 07:19:18;;;;;;;;;;;;;;;22.15;47.17;99900.66;5088982;28;20358;-76
2023/09/13 07:21:43;;;;;;;;;;;;;;;22.23;46.03;99894.03;5093263;28;19916;-76
2023/09/13 07:24:09;;;;;;;;;;;;;;;22.29;46.13;99897.63;5096746;28;20006;-77
2023/09/13 07:26:35;;;;;;;;;;;;;;;22.34;46.23;99897.72;5096713;28;19915;-78
2023/09/13 07:29:00;;;;;;;;;;;;;;;22.39;46.98;99900.50;5093653;28;20419;-77
2023/09/13 07:31:26;;;;;;;;;;;;;;;22.39;46.65;99901.31;5093879;28;19920;-75
2023/09/13 07:33:51;;;;;;;;;;;;;;;22.47;45.82;99894.69;5093787;28;20375;-78
2023/09/13 07:36:17;;;;;;;;;;;;;;;22.48;46.18;99899.84;5093619;28;19912;-78
2023/09/13 07:38:42;;;;;;;;;;;;;;;22.49;46.94;99903.34;5088935;28;19973;-76
2023/09/13 07:41:08;;;;;;;;;;;;;;;22.54;46.77;99903.41;5091609;28;19916;-78
2023/09/13 07:43:33;;;;;;;;;;;;;;;22.55;46.62;99901.53;5093412;28;19919;-78
2023/09/13 07:45:59;;;;;;;;;;;;;;;22.60;47.13;99898.91;5093628;28;19916;-79
2023/09/13 07:48:26;;;;;;;;;;;;;;;22.71;46.62;99898.81;5092720;28;19916;-78
2023/09/13 07:50:51;;;;;;;;;;;;;;;22.81;46.17;99896.28;5090187;28;19945;-79
2023/09/13 07:53:17;;;;;;;;;;;;;;;22.94;46.22;99896.97;5074019;28;19973;-79
2023/09/13 07:55:42;;;;;;;;;;;;;;;23.05;44.79;99890.69;5091388;28;20377;-78
2023/09/13 07:58:08;;;;;;;;;;;;;;;23.04;45.87;99889.03;5090515;28;19964;-78
2023/09/13 08:00:34;;;;;;;;;;;;;;;23.08;46.17;99890.16;5091186;28;19959;-77
2023/09/13 08:02:59;;;;;;;;;;;;;;;23.14;45.45;99883.78;5087433;28;19943;-79
2023/09/13 08:05:25;;;;;;;;;;;;;;;23.27;45.26;99886.09;5091130;28;20397;-78
2023/09/13 08:07:51;;;;;;;;;;;;;;;23.33;45.43;99887.75;5091287;28;20397;-78
2023/09/13 08:10:17;;;;;;;;;;;;;;;23.39;45.01;99885.94;5092654;28;19924;-77
2023/09/13 08:12:42;;;;;;;;;;;;;;;23.46;45.14;99878.47;5074269;28;19969;-77
2023/09/13 08:15:08;;;;;;;;;;;;;;;23.57;44.34;99887.50;5073715;28;19916;-77
2023/09/13 08:17:33;;;;;;;;;;;;;;;23.67;44.38;99884.91;5074900;28;19912;-76
2023/09/13 08:20:00;;;;;;;;;;;;;;;23.78;44.03;99889.31;5068619;28;20359;-75
2023/09/13 08:22:25;;;;;;;;;;;;;;;23.85;43.97;99884.53;5089085;28;20293;-77
2023/09/13 08:24:50;;;;;;;;;;;;;;;23.93;43.60;99875.97;5092081;28;20011;-77
2023/09/13 08:27:15;;;;;;;;;;;;;;;24.07;43.58;99876.34;5073777;28;19999;-77
2023/09/13 08:29:41;;;;;;;;;;;;;;;24.19;43.00;99876.19;5092075;28;19942;-77
2023/09/13 08:32:06;;;;;;;;;;;;;;;24.30;43.01;99875.19;5074076;28;19994;-75
2023/09/13 08:34:32;;;;;;;;;;;;;;;24.36;42.40;99884.97;5069271;28;19920;-75
2023/09/13 08:36:58;;;;;;;;;;;;;;;24.42;42.03;99878.50;5085376;28;19923;-77
2023/09/13 08:39:23;;;;;;;;;;;;;;;24.58;42.21;99874.06;5088201;28;19924;-75
2023/09/13 08:41:55;;;;;;;;;;;;;;;24.70;41.96;99869.25;5091601;28;19924;-77
2023/09/13 08:44:21;;;;;;;;;;;;;;;24.87;41.56;99864.47;5089827;28;19926;-75
2023/09/13 08:46:47;;;;;;;;;;;;;;;25.04;41.56;99861.59;5089497;28;19991;-77
2023/09/13 08:49:13;;;;;;;;;;;;;;;25.24;40.69;99848.13;5090404;28;19916;-76
2023/09/13 08:51:39;;;;;;;;;;;;;;;25.31;40.40;99859.53;5070573;28;19923;-77
2023/09/13 08:54:05;;;;;;;;;;;;;;;25.42;40.69;99851.44;5063967;28;19989;-75
2023/09/13 08:56:31;;;;;;;;;;;;;;;25.57;40.52;99846.03;5074120;28;19912;-76
2023/09/13 08:58:56;;;;;;;;;;;;;;;25.75;40.32;99836.63;5091041;28;19927;-75
2023/09/13 09:01:24;;;;;;;;;;;;;;;25.92;40.00;99843.38;5091119;28;20316;-77
2023/09/13 09:03:50;;;;;;;;;;;;;;;26.03;39.55;99836.09;5082729;28;19981;-75
2023/09/13 09:06:17;;;;;;;;;;;;;;;26.20;39.31;99833.91;5088209;28;19920;-76
2023/09/13 09:08:44;;;;;;;;;;;;;;;26.40;39.13;99834.97;5091883;28;20357;-75
2023/09/13 09:11:09;;;;;;;;;;;;;;;26.65;38.82;99839.47;5073862;28;19916;-76
2023/09/13 09:13:37;;;;;;;;;;;;;;;26.83;37.71;99834.28;5090386;28;19922;-77
2023/09/13 09:16:03;;;;;;;;;;;;;;;26.97;38.25;99831.78;5080308;28;20005;-74
2023/09/13 09:18:31;;;;;;;;;;;;;;;27.15;38.19;99833.06;5090308;28;20414;-78
2023/09/13 09:20:56;;;;;;;;;;;;;;;27.38;37.53;99823.44;5090012;28;20011;-77
2023/09/13 09:23:23;;;;;;;;;;;;;;;27.60;36.73;99823.84;5091687;28;20380;-74
2023/09/13 09:25:50;;;;;;;;;;;;;;;27.77;35.32;99818.03;5090436;28;20002;-78
2023/09/13 09:28:15;;;;;;;;;;;;;;;27.89;36.46;99823.88;5073281;28;19958;-77
2023/09/13 09:30:40;;;;;;;;;;;;;;;28.08;35.20;99811.22;5088704;28;19963;-74
2023/09/13 09:33:06;;;;;;;;;;;;;;;28.20;35.80;99816.25;5086479;28;20480;-75
2023/09/13 09:35:32;;;;;;;;;;;;;;;28.38;35.15;99817.47;5086724;28;19913;-75
2023/09/13 09:37:58;;;;;;;;;;;;;;;28.43;35.37;99814.72;5073633;28;20305;-77
2023/09/13 09:40:23;;;;;;;;;;;;;;;28.44;33.77;99806.25;5088797;28;19931;-76
2023/09/13 09:42:57;;;;;;;;;;;;;;;28.56;35.58;99803.13;5089579;28;19916;-75
2023/09/13 09:45:23;;;;;;;;;;;;;;;28.66;34.79;99804.91;5069265;28;20389;-76
2023/09/13 09:47:53;;;;;;;;;;;;;;;28.75;34.27;99806.69;5071291;28;19912;-75
2023/09/13 09:50:18;;;;;;;;;;;;;;;28.95;34.71;99794.78;5071303;28;19916;-77
2023/09/13 09:52:50;;;;;;;;;;;;;;;29.16;34.74;99805.38;5077156;28;19916;-75
2023/09/13 09:55:15;;;;;;;;;;;;;;;29.36;34.43;99796.91;5089740;28;20007;-75
2023/09/13 09:57:47;;;;;;;;;;;;;;;29.55;34.51;99795.00;5091385;28;20465;-75
2023/09/13 10:00:13;;;;;;;;;;;;;;;29.70;34.58;99791.22;5073666;28;19923;-74
2023/09/13 10:05:23;;;;;;;;;;;;;;;30.08;32.48;99789.22;5090718;28;19969;-74
2023/09/13 10:07:54;;;;;;;;;;;;;;;30.18;32.18;99789.03;5085529;28;19916;-74
2023/09/13 10:10:33;;;;;;;;;;;;;;;30.42;32.75;99785.31;5090164;28;20009;-77
2023/09/13 10:12:59;;;;;;;;;;;;;;;30.54;32.20;99782.91;5090161;28;19959;-77
2023/09/13 10:15:25;;;;;;;;;;;;;;;30.63;31.90;99783.84;5088530;28;20407;-76
2023/09/13 10:17:52;;;;;;;;;;;;;;;30.79;30.98;99778.84;5091066;28;20312;-76
2023/09/13 10:20:20;;;;;;;;;;;;;;;30.77;31.35;99779.16;5091176;28;19919;-75
2023/09/13 10:22:46;;;;;;;;;;;;;;;30.98;31.56;99774.88;5091782;28;20006;-76
2023/09/13 10:25:15;;;;;;;;;;;;;;;31.17;31.73;99772.00;5091801;28;19919;-76
2023/09/13 10:27:42;;;;;;;;;;;;;;;31.32;32.46;99772.78;5090817;28;20373;-76
2023/09/13 10:30:10;;;;;;;;;;;;;;;31.45;32.01;99767.25;5072129;28;19963;-74
2023/09/13 10:32:42;;;;;;;;;;;;;;;31.68;31.02;99764.50;5091034;28;19912;-74
2023/09/13 10:35:08;;;;;;;;;;;;;;;31.89;31.07;99763.69;5088116;28;19916;-77
2023/09/13 10:37:47;;;;;;;;;;;;;;;32.11;30.87;99762.03;5072625;28;19966;-76
2023/09/13 10:40:15;;;;;;;;;;;;;;;32.35;30.76;99758.94;5090584;28;19935;-76
2023/09/13 10:42:42;;;;;;;;;;;;;;;32.38;31.31;99752.84;5072783;28;20308;-75
2023/09/13 10:45:10;;;;;;;;;;;;;;;32.50;30.34;99756.56;5091097;28;19999;-75
2023/09/13 10:47:36;;;;;;;;;;;;;;;32.61;30.11;99756.25;5094155;28;19912;-77
2023/09/13 10:50:02;;;;;;;;;;;;;;;32.77;30.11;99752.81;5076328;28;20385;-76
2023/09/13 10:52:32;;;;;;;;;;;;;;;32.89;29.14;99751.38;5094400;28;20282;-76
2023/09/13 10:54:58;;;;;;;;;;;;;;;33.00;28.71;99752.66;5094170;28;19916;-77
2023/09/13 10:57:23;;;;;;;;;;;;;;;33.08;27.99;99749.13;5094444;28;19912;-77
2023/09/13 10:59:50;;;;;;;;;;;;;;;33.10;29.07;99746.84;5094481;28;20355;-76
2023/09/13 11:02:15;;;;;;;;;;;;;;;33.21;28.06;99739.94;5094184;28;19963;-76
2023/09/13 11:04:41;;;;;;;;;;;;;;;33.34;28.75;99733.50;5068404;28;20065;-77
2023/09/13 11:07:06;;;;;;;;;;;;;;;33.43;28.93;99737.03;5075015;28;19916;-76
2023/09/13 11:09:32;;;;;;;;;;;;;;;33.54;29.13;99721.09;5072731;28;19965;-75
2023/09/13 11:11:58;;;;;;;;;;;;;;;33.58;29.86;99723.97;5073899;28;20424;-75
2023/09/13 11:14:24;;;;;;;;;;;;;;;33.55;29.61;99721.88;5073790;28;19912;-77
2023/09/13 11:16:50;;;;;;;;;;;;;;;33.64;28.05;99717.19;5073779;28;20394;-75
2023/09/13 11:19:18;;;;;;;;;;;;;;;33.76;28.22;99718.13;5076119;28;19924;-77
2023/09/13 11:21:49;;;;;;;;;;;;;;;33.71;28.84;99720.22;5071014;28;20403;-76
2023/09/13 11:24:32;;;;;;;;;;;;;;;33.64;28.80;99706.25;5085361;28;19931;-76
2023/09/13 11:27:08;;;;;;;;;;;;;;;33.70;25.65;99702.19;5084534;28;19916;-75
2023/09/13 11:29:38;;;;;;;;;;;;;;;33.64;27.09;99693.34;5093113;28;20069;-76
2023/09/13 11:32:04;;;;;;;;;;;;;;;33.70;27.64;99694.78;5093341;28;19916;-76
2023/09/13 11:34:33;;;;;;;;;;;;;;;33.82;28.11;99693.31;5064865;28;20309;-75
2023/09/13 11:37:04;;;;;;;;;;;;;;;33.86;27.58;99689.59;5087548;28;20006;-75
2023/09/13 11:39:29;;;;;;;;;;;;;;;33.90;27.50;99695.22;5071371;28;19916;-76
2023/09/13 11:41:55;;;;;;;;;;;;;;;33.98;26.69;99695.16;5090859;28;20449;-76
2023/09/13 11:44:24;;;;;;;;;;;;;;;34.04;26.96;99696.59;5094017;28;20331;-75
2023/09/13 11:46:50;;;;;;;;;;;;;;;34.10;26.51;99684.31;5093500;28;19955;-76
2023/09/13 11:49:18;;;;;;;;;;;;;;;34.14;26.54;99686.38;5093358;28;20432;-76
2023/09/13 11:52:02;;;;;;;;;;;;;;;34.13;26.70;99684.78;5075284;28;19912;-76
2023/09/13 11:54:27;;;;;;;;;;;;;;;34.15;26.66;99682.50;5093352;28;20375;-77
2023/09/13 11:56:53;;;;;;;;;;;;;;;34.01;27.02;99674.53;5089613;28;19912;-77
2023/09/13 11:59:39;;;;;;;;;;;;;;;33.99;27.05;99674.84;5092264;28;20303;-75
2023/09/13 12:02:07;;;;;;;;;;;;;;;33.83;27.66;99668.34;5073734;28;20015;-75
2023/09/13 12:04:32;;;;;;;;;;;;;;;33.78;26.23;99672.03;5091314;28;19916;-76
2023/09/13 12:06:58;;;;;;;;;;;;;;;33.70;26.16;99661.09;5092480;28;19917;-75
2023/09/13 12:09:24;;;;;;;;;;;;;;;33.60;25.67;99661.47;5092469;28;20015;-76
2023/09/13 12:11:51;;;;;;;;;;;;;;;33.43;28.09;99660.38;5092088;28;20392;-75
2023/09/13 12:14:18;;;;;;;;;;;;;;;33.33;26.74;99648.97;5089958;28;20377;-76
2023/09/13 12:16:47;;;;;;;;;;;;;;;33.22;26.86;99647.69;5092516;28;19916;-75
2023/09/13 12:19:13;;;;;;;;;;;;;;;33.09;27.90;99642.09;5091493;28;20015;-78
2023/09/13 12:21:42;;;;;;;;;;;;;;;32.98;27.05;99629.88;5092448;28;20377;-76
2023/09/13 12:24:12;;;;;;;;;;;;;;;32.92;27.30;99638.56;5090982;28;19927;-76
2023/09/13 12:26:37;;;;;;;;;;;;;;;32.83;28.13;99633.94;5090656;28;19916;-76
2023/09/13 12:29:03;;;;;;;;;;;;;;;32.77;27.59;99635.22;5091860;28;20373;-75
2023/09/13 12:31:29;;;;;;;;;;;;;;;32.73;28.57;99630.69;5092783;28;19977;-75
2023/09/13 12:33:55;;;;;;;;;;;;;;;32.67;27.23;99627.28;5092295;28;19916;-74
2023/09/13 12:36:21;;;;;;;;;;;;;;;32.64;25.98;99627.94;5092301;28;19960;-75
2023/09/13 12:38:49;;;;;;;;;;;;;;;32.67;27.06;99632.75;5092449;28;20392;-75
2023/09/13 12:41:16;;;;;;;;;;;;;;;32.68;26.83;99628.09;5091744;28;19920;-76
2023/09/13 12:43:43;;;;;;;;;;;;;;;32.67;27.43;99624.53;5073074;28;20036;-75
2023/09/13 12:46:10;;;;;;;;;;;;;;;32.70;27.42;99615.72;5090816;28;20324;-74